Terminal Aerodrome Forecast
Issued by NWS Mt. Holly, NJ

Home | Current Version | Previous Version | Text Only | Print | Product List | Glossary On
Versions: 1 2 3 4 5 6 7 8 9 10 11 12 13 14 15
856
FTUS41 KPHI 090520
TAFRDG
TAF
KRDG 090520Z 0906/1006 08008KT 2SM -SN OVC015
      TEMPO 0906/0910 2SM -SN BR OVC009
     FM091100 05008KT 5SM -SN OVC010
     FM092100 02005KT 1SM -SN OVC006
     FM100000 26003KT 5SM -SN BR OVC010=

USA.gov is the U.S. government's official web portal to all federal, state and local government web resources and services.